This demonstration page uses our WeatherBlox Daily Observations layout. Learn more.

Left ArrowRight Arrow

34.74481, -87.66753

Hourly Observations for June 28, 2020

Temp ( °F °C ) Dew Point ( °F °C ) Humidity (%) Winds ( mph kmh ) Pressure ( in mb ) Visibility ( mi km ) Precip ( " mm )
12:53 am 00:53 Clear N/A N/A N/A SSW 6 9 N/A 9 14 0.00 0.00
1:53 am 01:53 Clear N/A N/A N/A SSW 5 7 N/A 9 14 0.00 0.00
2:53 am 02:53 Clear N/A N/A N/A S 3 6 N/A 8 13 0.00 0.00
3:53 am 03:53 Mostly Clear N/A N/A N/A SW 5 7 N/A 9 14 0.00 0.00
4:53 am 04:53 Clear N/A N/A N/A SW 8 13 N/A 10 16 0.00 0.00
5:53 am 05:53 Sunny N/A N/A N/A SW 8 13 N/A 10 16 0.00 0.00
6:40 am 06:40 Mostly Cloudy N/A N/A N/A SW 9 15 N/A 10 16 0.00 0.00
6:48 am 06:48 Partly Cloudy N/A N/A N/A WSW 8 13 N/A 10 16 0.00 0.00
6:53 am 06:53 Partly Cloudy N/A N/A N/A WSW 8 13 N/A 10 16 0.00 0.00
7:17 am 07:17 Mostly Cloudy N/A N/A N/A WSW 9 15 N/A 10 16 0.00 0.00
7:53 am 07:53 Cloudy N/A N/A N/A WSW 9 15 N/A 10 16 0.00 0.00
8:53 am 08:53 Cloudy N/A N/A N/A WSW 12 19 N/A 10 16 0.00 0.00
9:53 am 09:53 Cloudy N/A N/A N/A WSW 10 17 N/A 10 16 0.00 0.00
10:53 am 10:53 Mostly Cloudy N/A N/A N/A WSW 10 17 N/A 10 16 0.00 0.00
11:06 am 11:06 Mostly Cloudy N/A N/A N/A W 14 22 N/A 10 16 0.00 0.00
11:53 am 11:53 Mostly Cloudy N/A N/A N/A W 10 17 N/A 10 16 0.00 0.00
12:53 pm 12:53 Mostly Cloudy N/A N/A N/A WSW 12 19 N/A 10 16 0.00 0.00
1:53 pm 13:53 Partly Cloudy N/A N/A N/A WSW 14 22 N/A 10 16 0.00 0.00
2:53 pm 14:53 Sunny N/A N/A N/A WSW 10 17 N/A 10 16 0.00 0.00
3:53 pm 15:53 Partly Cloudy N/A N/A N/A WSW 12 19 N/A 10 16 0.00 0.00
4:53 pm 16:53 Mostly Sunny N/A N/A N/A SW 13 20 N/A 10 16 0.00 0.00
5:53 pm 17:53 Sunny N/A N/A N/A WSW 8 13 N/A 10 16 0.00 0.00
6:53 pm 18:53 Sunny N/A N/A N/A WSW 7 11 N/A 10 16 0.00 0.00
7:53 pm 19:53 Sunny N/A N/A N/A SW 6 9 N/A 10 16 0.00 0.00
8:53 pm 20:53 Clear N/A N/A N/A SSW 3 6 N/A 10 16 0.00 0.00
9:53 pm 21:53 Clear N/A N/A N/A S 3 6 N/A 10 16 0.00 0.00
10:53 pm 22:53 Clear N/A N/A N/A SW 7 11 N/A 10 16 0.00 0.00
11:53 pm 23:53 Clear N/A N/A N/A S 5 7 N/A 10 16 0.00 0.00

Powered by AerisWeather